Wetterdaten: aktuell Sonntag, 10.05.2026 22:50
Datum Zeit Arbeit-Z. Temp. A. Bod.+5cm Temp. A. min Temp. A. max Bl.Temp +1m BTemp -5cm BTemp -10cm BTemp -20cm BTemp -50cm Feuchte I. Feuchte A. BlattFeu +1m BFeucht -5cm BFeucht-10cm BFeucht-20cm BFeucht-50cm Luftdruck Regen Wind Richtung Richtung Sonnenschein ET UV Solar Taupunkt Windchill Windböen Empfang
10.05.2026 22:50 22,7 °C 14,8 °C 13,9 °C 14,8 °C 14,9 °C 16,1 °C 16,1 °C 16,7 °C 15,6 °C 14,4 °C 51 % 94 % 15 lf 200 cb 168 cb 94 cb 79 cb 1004,3 hPa 0,0 l/m² 0,4 km/h (0 Bft) S-SO 163 ° 0 min 0,000 mm 0,0 UV-I 0 W/m² 13,8 °C 14,8 °C 1,6 km/h (1 Bft) 96,67 %
10.05.2026 21:50 22,8 °C 14,9 °C 13,9 °C 14,9 °C 15,0 °C 16,7 °C 16,7 °C 16,7 °C 15,6 °C 14,4 °C 51 % 93 % 15 lf 200 cb 166 cb 94 cb 78 cb 1004,6 hPa 0,0 l/m² 2,4 km/h (1 Bft) S-SW 200 ° 0 min 0,000 mm 0,0 UV-I 0 W/m² 13,8 °C 14,9 °C 6,4 km/h (2 Bft) 100,00 %
10.05.2026 20:50 22,8 °C 15,1 °C 13,9 °C 15,1 °C 15,2 °C 17,2 °C 17,2 °C 16,7 °C 15,6 °C 14,4 °C 51 % 92 % 15 lf 200 cb 167 cb 94 cb 79 cb 1004,8 hPa 1,0 l/m² 0,7 km/h (0 Bft) S-SW 192 ° 0 min 0,000 mm 0,0 UV-I 0 W/m² 13,8 °C 15,1 °C 1,6 km/h (1 Bft) 92,73 %
10.05.2026 19:50 22,8 °C 15,2 °C 13,3 °C 15,2 °C 15,2 °C 17,8 °C 17,8 °C 17,2 °C 15,6 °C 14,4 °C 51 % 89 % 13 lf 200 cb 171 cb 98 cb 79 cb 1004,2 hPa 3,6 l/m² 4,3 km/h (1 Bft) SO 126 ° 0 min 0,001 mm 0,0 UV-I 0 W/m² 13,4 °C 15,2 °C 12,9 km/h (3 Bft) 97,50 %
10.05.2026 18:50 22,7 °C 16,4 °C 14,4 °C 16,4 °C 16,6 °C 18,3 °C 18,3 °C 17,2 °C 15,6 °C 13,9 °C 51 % 84 % 15 lf 200 cb 171 cb 98 cb 78 cb 1004,3 hPa 0,4 l/m² 9,3 km/h (2 Bft) S-SO 150 ° 0 min 0,076 mm 0,0 UV-I 7 W/m² 13,7 °C 15,0 °C 24,1 km/h (4 Bft) 93,86 %
10.05.2026 17:50 22,8 °C 20,4 °C 16,1 °C 20,4 °C 21,3 °C 18,3 °C 18,3 °C 16,7 °C 15,0 °C 13,9 °C 49 % 66 % 15 lf 200 cb 170 cb 96 cb 78 cb 1003,3 hPa 0,6 l/m² 3,9 km/h (1 Bft) S 186 ° 15 min 0,203 mm 0,0 UV-I 42 W/m² 13,8 °C 20,4 °C 6,4 km/h (2 Bft) 95,76 %
10.05.2026 16:50 22,8 °C 24,6 °C 23,9 °C 24,6 °C 25,0 °C 18,9 °C 18,9 °C 16,7 °C 15,0 °C 13,9 °C 50 % 56 % 0 lf 200 cb 171 cb 96 cb 78 cb 1003,1 hPa 0,0 l/m² 4,9 km/h (1 Bft) N-NW 343 ° 60 min 0,254 mm 1,2 UV-I 272 W/m² 15,2 °C 24,6 °C 12,9 km/h (3 Bft) 97,30 %
10.05.2026 15:50 22,8 °C 25,0 °C 23,3 °C 25,0 °C 25,1 °C 18,9 °C 18,9 °C 16,1 °C 15,0 °C 13,9 °C 50 % 50 % 0 lf 200 cb 169 cb 96 cb 78 cb 1003,6 hPa 0,0 l/m² 4,2 km/h (1 Bft) N-NW 329 ° 60 min 0,356 mm 1,5 UV-I 279 W/m² 13,8 °C 25,0 °C 12,9 km/h (3 Bft) 98,31 %
10.05.2026 14:50 22,8 °C 26,1 °C 25,0 °C 25,8 °C 26,1 °C 18,9 °C 18,9 °C 16,1 °C 15,0 °C 13,9 °C 50 % 49 % 0 lf 200 cb 170 cb 95 cb 77 cb 1004,1 hPa 0,0 l/m² 6,1 km/h (2 Bft) N-NO 25 ° 60 min 0,406 mm 2,8 UV-I 504 W/m² 14,5 °C 26,1 °C 17,7 km/h (3 Bft) 97,46 %
10.05.2026 13:50 22,7 °C 25,8 °C 23,9 °C 25,8 °C 26,0 °C 18,9 °C 18,9 °C 15,6 °C 14,4 °C 13,9 °C 50 % 46 % 0 lf 200 cb 168 cb 89 cb 76 cb 1004,7 hPa 0,0 l/m² 3,8 km/h (1 Bft) NW 312 ° 60 min 0,432 mm 2,9 UV-I 473 W/m² 13,3 °C 25,8 °C 9,7 km/h (2 Bft) 98,33 %
10.05.2026 12:50 22,7 °C 25,7 °C 24,4 °C 25,3 °C 25,7 °C 17,8 °C 17,8 °C 15,0 °C 14,4 °C 13,9 °C 51 % 49 % 0 lf 200 cb 170 cb 90 cb 76 cb 1005,4 hPa 0,0 l/m² 4,9 km/h (1 Bft) N-NO 17 ° 60 min 0,406 mm 4,3 UV-I 751 W/m² 14,2 °C 25,7 °C 9,7 km/h (2 Bft) 93,02 %
10.05.2026 11:50 22,6 °C 23,2 °C 22,2 °C 23,2 °C 23,4 °C 16,7 °C 16,7 °C 15,0 °C 14,4 °C 13,9 °C 51 % 65 % 0 lf 200 cb 171 cb 90 cb 76 cb 1006,1 hPa 0,0 l/m² 2,9 km/h (1 Bft) W-SW 238 ° 60 min 0,356 mm 3,7 UV-I 664 W/m² 16,2 °C 23,2 °C 6,4 km/h (2 Bft) 96,61 %
10.05.2026 10:50 22,4 °C 20,9 °C 20,0 °C 20,6 °C 20,9 °C 15,0 °C 15,0 °C 14,4 °C 14,4 °C 13,9 °C 50 % 68 % 0 lf 200 cb 172 cb 90 cb 76 cb 1007,0 hPa 0,0 l/m² 2,9 km/h (1 Bft) NW 323 ° 60 min 0,254 mm 3,1 UV-I 670 W/m² 14,8 °C 20,9 °C 6,4 km/h (2 Bft) 94,02 %
10.05.2026 09:50 22,3 °C 18,1 °C 17,2 °C 17,9 °C 18,1 °C 13,9 °C 13,9 °C 14,4 °C 15,0 °C 13,9 °C 49 % 73 % 0 lf 200 cb 172 cb 91 cb 75 cb 1007,6 hPa 0,0 l/m² 6,8 km/h (2 Bft) N-NW 336 ° 60 min 0,127 mm 1,9 UV-I 489 W/m² 13,2 °C 17,9 °C 9,7 km/h (2 Bft) 95,50 %
10.05.2026 08:50 22,3 °C 16,1 °C 15,0 °C 15,9 °C 16,1 °C 13,3 °C 13,3 °C 15,0 °C 15,0 °C 13,9 °C 49 % 78 % 0 lf 200 cb 173 cb 90 cb 75 cb 1007,9 hPa 0,0 l/m² 2,4 km/h (1 Bft) N-NW 340 ° 60 min 0,051 mm 0,9 UV-I 195 W/m² 12,3 °C 16,1 °C 6,4 km/h (2 Bft) 99,05 %
10.05.2026 07:50 22,2 °C 13,3 °C 12,2 °C 12,9 °C 13,3 °C 13,9 °C 13,9 °C 15,0 °C 15,0 °C 13,9 °C 48 % 88 % 0 lf 200 cb 172 cb 90 cb 75 cb 1008,2 hPa 0,0 l/m² 3,0 km/h (1 Bft) N-NW 348 ° 10 min 0,025 mm 0,5 UV-I 144 W/m² 11,4 °C 13,3 °C 4,8 km/h (1 Bft) 92,62 %
10.05.2026 06:50 22,3 °C 11,5 °C 10,6 °C 11,5 °C 11,6 °C 13,9 °C 13,9 °C 15,0 °C 15,0 °C 13,9 °C 48 % 91 % 1 lf 200 cb 171 cb 90 cb 75 cb 1008,4 hPa 0,0 l/m² 0,7 km/h (0 Bft) N 5 ° 0 min 0,000 mm 0,0 UV-I 47 W/m² 10,1 °C 11,5 °C 3,2 km/h (1 Bft) 98,29 %
10.05.2026 05:50 22,3 °C 11,7 °C 10,6 °C 11,7 °C 11,8 °C 13,9 °C 13,9 °C 15,0 °C 15,0 °C 13,9 °C 48 % 90 % 2 lf 200 cb 168 cb 89 cb 75 cb 1008,4 hPa 0,0 l/m² 0,3 km/h (0 Bft) W 269 ° 0 min 0,000 mm 0,0 UV-I 0 W/m² 10,1 °C 11,7 °C 1,6 km/h (1 Bft) 99,15 %
10.05.2026 04:50 22,3 °C 11,2 °C 10,0 °C 11,2 °C 11,3 °C 14,4 °C 14,4 °C 15,6 °C 15,0 °C 13,9 °C 48 % 92 % 3 lf 200 cb 168 cb 89 cb 74 cb 1008,5 hPa 0,0 l/m² 0,3 km/h (0 Bft) W 261 ° 0 min 0,000 mm 0,0 UV-I 0 W/m² 9,9 °C 11,2 °C 1,6 km/h (1 Bft) 93,33 %
10.05.2026 03:50 22,4 °C 11,1 °C 10,0 °C 11,1 °C 11,2 °C 14,4 °C 14,4 °C 15,6 °C 15,0 °C 13,9 °C 49 % 92 % 2 lf 200 cb 168 cb 89 cb 74 cb 1008,9 hPa 0,0 l/m² 0,1 km/h (0 Bft) S 179 ° 0 min 0,000 mm 0,0 UV-I 0 W/m² 9,8 °C 11,1 °C 1,6 km/h (1 Bft) 99,17 %
10.05.2026 02:50 22,4 °C 11,6 °C 10,6 °C 11,6 °C 11,7 °C 15,0 °C 15,0 °C 15,6 °C 15,0 °C 13,9 °C 49 % 91 % 1 lf 200 cb 166 cb 88 cb 73 cb 1009,3 hPa 0,0 l/m² 0,0 km/h (0 Bft) S 179 ° 0 min 0,000 mm 0,0 UV-I 0 W/m² 10,2 °C 11,6 °C 1,6 km/h (1 Bft) 95,00 %
10.05.2026 01:50 22,4 °C 12,4 °C 11,1 °C 12,4 °C 12,4 °C 15,0 °C 15,0 °C 16,1 °C 15,6 °C 13,9 °C 49 % 89 % 1 lf 200 cb 167 cb 88 cb 73 cb 1010,2 hPa 0,0 l/m² 0,3 km/h (0 Bft) S 179 ° 0 min 0,000 mm 0,0 UV-I 0 W/m² 10,6 °C 12,4 °C 3,2 km/h (1 Bft) 99,17 %
10.05.2026 00:50 22,4 °C 13,7 °C 12,2 °C 13,7 °C 13,8 °C 15,6 °C 15,6 °C 16,1 °C 15,6 °C 13,9 °C 49 % 87 % 0 lf 200 cb 165 cb 88 cb 73 cb 1010,5 hPa 0,0 l/m² 0,0 km/h (0 Bft) W 274 ° 0 min 0,000 mm 0,0 UV-I 0 W/m² 11,6 °C 13,7 °C 0,0 km/h (0 Bft) 90,83 %
09.05.2026 23:50 22,5 °C 14,2 °C 12,8 °C 14,1 °C 14,2 °C 16,1 °C 16,1 °C 16,1 °C 15,6 °C 13,9 °C 49 % 85 % 0 lf 200 cb 163 cb 87 cb 72 cb 1010,6 hPa 0,0 l/m² 0,2 km/h (0 Bft) S-SO 155 ° 0 min 0,025 mm 0,0 UV-I 0 W/m² 11,7 °C 14,2 °C 1,6 km/h (1 Bft) 95,58 %
09.05.2026 23:00 22,6 °C 15,4 °C 14,4 °C 15,3 °C 15,5 °C 16,1 °C 16,1 °C 16,1 °C 15,6 °C 13,9 °C 49 % 81 % 0 lf 200 cb 163 cb 87 cb 71 cb 1010,8 hPa 0,0 l/m² 1,1 km/h (1 Bft) S-SW 205 ° 0 min 0,000 mm 0,0 UV-I 0 W/m² 12,2 °C 15,4 °C 4,8 km/h (1 Bft) 96,08 %
_ Min-Zeit 07:10 04:15 03:35 04:15 04:05 08:20 08:20 09:20 10:20 23:00 04:05 13:15 23:00 23:00 23:35 23:00 23:00 16:55 - 00:25 - - - - - - 04:15 04:15 00:30 00:05
Minimum _ 22,2 °C 11,0 °C 10,0 °C 11,0 °C 11,1 °C 13,3 °C 13,3 °C 14,4 °C 14,4 °C 13,9 °C 48 % 45 % 0 lf 200 cb 162 cb 87 cb 71 cb 1003,0 hPa - 0,0 km/h (0 Bft) - - - - - - 9,8 °C 11,0 °C 0,0 km/h (0 Bft) 74,07 %
_ Max-Zeit 17:20 13:15 13:00 13:10 13:15 13:35 13:35 18:30 23:00 19:50 11:30 22:15 17:30 23:00 08:50 18:05 19:50 23:00 17:50 19:05 - - 07:35 13:00 13:05 13:05 12:00 13:10 18:45 01:45
Maximum _ 22,9 °C 26,4 °C 25,6 °C 26,1 °C 26,4 °C 18,9 °C 18,9 °C 17,2 °C 15,6 °C 14,4 °C 52 % 94 % 15 lf 200 cb 173 cb 98 cb 79 cb 1010,8 hPa 0,6 l/m² 12,1 km/h
S-SW (2 Bft)
- - 5 min 0,432 mm 4,5 UV-I 819 W/m² 16,3 °C 26,3 °C 29,0 km/h
SW (5 Bft)
100,00 %
Durchschnitt _ 22,5 °C 17,0 °C 15,8 °C 17,0 °C 17,1 °C 16,2 °C 16,2 °C 15,8 °C 15,1 °C 14,0 °C 50 % 77 % 4 lf 200 cb 169 cb 91 cb 75 cb 1007,0 hPa #5,6 l/m² 2,6 km/h (1 Bft) N-NW - #9:25 h #2,972 mm 2,3 UV-I 339 W/m² 12,6 °C 17,0 °C 6,7 km/h (2 Bft) 95,78 %
copy; 2009 Dieter Kraft